Aérodrome :
LOGIN :

S'inscrire | Disclaimer

   EN    FR    IT 

 










Légende :    VFR   VFR Marginal   IFR   IFR Intensif   IFR Très Intensif
Visi : 
Plafond : 
>= 8 km
>= 3000ft
5 à 8 km
1000 à 3000 ft
1500m à 5 km
500 à 1000 ft
800 à 1500m
200 à 500 ft
< 800m
< 200 ft
Symboles :   Orages  Brouillard  Fortes neiges  Fortes précipitations  Vent > 20 kt
SIGMETs :   Divers  Orages  Givrage  Turbulence  Onde Orograph.  Cendres Volcan.







- Altitude de l'aérodrome : 100 ft


EBDT - Schaffen

DERNIER METAR :
  • 241225Z 25006KT 9999 FEW022 BKN027 09/06 Q1011 BLU BLU

METARs EXPIRÉS :
  • 241155Z 24006KT 9999 FEW022 BKN027 09/06 Q1011 BLU BLU
  • 241139Z 24005KT 9999 FEW022 BKN027 09/07 Q1011 BLU BLU
  • 241125Z 25006KT 9999 FEW007 SCT018 BKN023 09/07 Q1011 WHT WHT BECMG BLU
  • 241103Z 26005KT 9999 SCT009 SCT020 09/07 Q1011 GRN WHT BECMG BLU
  • 241033Z 27004KT 9999 FEW005 BKN032 08/07 Q1011 BLU BLU TEMPO GRN
  • 241025Z 27005KT 9999 FEW005 BKN032 08/07 Q1011 BLU BLU TEMPO GRN
  • 240955Z AUTO 26006KT 9999 FEW003/// SCT018/// BKN021/// 08/07 Q1010 WHT

TAF TAF EBDT
Valide du 24 à 10h jusqu'au 24 à 19h UTC


240841Z 2410/2419 25005KT 8000 FEW015 BKN030
TEMPO 2410/2412 SCT015
BECMG 2416/2418 BKN020
Pas de NOTAMs connus pour ce terrain.



MET'MAP, la Météo Aéronautique d'un coup d'oeil ! - Copyright ORBIFLY Décembre 2007 - Disclaimer

ORBIFLY MET'MAP TEAM :

Programmation & Développement : Alexandra Zaïnal
Conception & Développement : Baudouin d'Aumeries
Co-Programmation & Développement : Marc-Olivier Méhu
Soutien technique & logistique : Manuel Goepfert

Contact : metmap@orbifly.com




SOURCES & CREDITS :

   NOAA